createdAt,value
2023-05-22T00:00:19.147Z,0.50
2023-05-22T00:01:22.381Z,1.00
2023-05-22T00:02:25.530Z,0.14
2023-05-22T00:03:28.908Z,0.00
2023-05-22T00:04:32.167Z,0.00
2023-05-22T00:05:35.377Z,0.00
2023-05-22T00:06:38.620Z,0.00
2023-05-22T00:07:41.847Z,0.00
2023-05-22T00:08:45.092Z,0.00
2023-05-22T00:09:48.278Z,0.00
2023-05-22T00:10:51.350Z,0.00
2023-05-22T00:11:54.862Z,0.00
2023-05-22T00:12:57.995Z,0.00
2023-05-22T00:14:01.103Z,0.00
2023-05-22T00:15:04.263Z,0.00
2023-05-22T00:16:07.425Z,0.00
2023-05-22T00:17:10.685Z,0.00
2023-05-22T00:18:13.730Z,0.00
2023-05-22T00:19:17.068Z,0.00
2023-05-22T00:20:20.398Z,0.00
2023-05-22T00:21:23.581Z,0.00
2023-05-22T00:22:26.763Z,0.00
2023-05-22T00:23:30.013Z,0.00
2023-05-22T00:24:34.804Z,0.00
2023-05-22T00:25:37.943Z,0.00
2023-05-22T00:26:41.506Z,0.00
2023-05-22T00:27:45.069Z,0.00
2023-05-22T00:28:48.822Z,0.00
2023-05-22T00:29:52.224Z,0.00
2023-05-22T00:30:55.695Z,0.00
2023-05-22T00:31:59.008Z,0.00
2023-05-22T00:33:02.447Z,0.00
2023-05-22T00:34:05.880Z,0.00
2023-05-22T00:35:09.345Z,0.00
2023-05-22T00:36:12.845Z,0.00
2023-05-22T00:37:16.323Z,0.00
2023-05-22T00:38:20.052Z,0.00
2023-05-22T00:39:23.404Z,0.00
2023-05-22T00:40:26.909Z,0.00
2023-05-22T00:41:30.156Z,0.00
2023-05-22T00:42:33.495Z,0.00
2023-05-22T00:43:36.828Z,0.00
2023-05-22T00:44:40.237Z,0.00
2023-05-22T00:45:43.728Z,0.00
2023-05-22T00:46:47.177Z,0.00
2023-05-22T00:47:50.605Z,0.00
2023-05-22T00:48:53.968Z,0.00
2023-05-22T00:49:57.281Z,0.00
2023-05-22T00:51:00.702Z,0.00
2023-05-22T00:52:03.950Z,0.00
2023-05-22T00:53:07.552Z,0.00
2023-05-22T00:54:11.229Z,0.00
2023-05-22T00:55:14.478Z,0.00
2023-05-22T00:56:17.802Z,0.00
2023-05-22T00:57:21.009Z,0.00
2023-05-22T00:58:24.374Z,0.00
2023-05-22T00:59:27.961Z,0.00
2023-05-22T01:00:31.267Z,0.00
2023-05-22T01:01:34.561Z,0.00
2023-05-22T01:02:37.791Z,0.00
2023-05-22T01:03:41.058Z,0.00
2023-05-22T01:04:44.446Z,0.00
2023-05-22T01:05:47.514Z,0.00
2023-05-22T01:06:50.608Z,0.00
2023-05-22T01:07:53.676Z,0.00
2023-05-22T01:08:56.801Z,0.00
2023-05-22T01:10:00.113Z,0.00
2023-05-22T01:11:03.170Z,0.00
2023-05-22T01:12:06.351Z,0.00
2023-05-22T01:13:09.451Z,0.00
2023-05-22T01:14:12.717Z,0.00
2023-05-22T01:15:16.511Z,0.00
2023-05-22T01:16:19.849Z,0.00
2023-05-22T01:17:23.285Z,0.00
2023-05-22T01:18:26.563Z,0.00
2023-05-22T01:19:29.971Z,0.00
2023-05-22T01:20:33.409Z,0.00
2023-05-22T01:21:36.733Z,0.00
2023-05-22T01:22:40.105Z,0.00
2023-05-22T01:23:43.500Z,0.00
2023-05-22T01:24:47.106Z,0.00
2023-05-22T01:25:50.583Z,0.00
2023-05-22T01:26:53.860Z,0.00
2023-05-22T01:27:57.246Z,0.00
2023-05-22T01:29:00.741Z,0.00
2023-05-22T01:30:04.127Z,0.00
2023-05-22T01:31:07.400Z,0.00
2023-05-22T01:32:10.685Z,0.00
2023-05-22T01:33:14.086Z,0.00
2023-05-22T01:34:17.581Z,0.00
2023-05-22T01:35:20.859Z,0.00
2023-05-22T01:36:24.342Z,0.00
2023-05-22T01:37:27.726Z,0.00
2023-05-22T01:38:31.025Z,0.00
2023-05-22T01:39:34.398Z,0.00
2023-05-22T01:40:37.913Z,0.00
2023-05-22T01:41:41.412Z,0.00
2023-05-22T01:42:44.654Z,0.00
2023-05-22T01:43:48.189Z,0.00
2023-05-22T01:44:51.432Z,0.00
2023-05-22T01:45:54.850Z,0.00
2023-05-22T01:46:58.203Z,0.00
2023-05-22T01:48:01.513Z,0.00
2023-05-22T01:49:04.997Z,0.00
2023-05-22T01:50:08.170Z,0.00
2023-05-22T01:51:11.457Z,0.00
2023-05-22T01:52:15.039Z,0.00
2023-05-22T01:53:18.331Z,0.00
2023-05-22T01:54:21.632Z,0.00
2023-05-22T01:55:25.101Z,0.00
2023-05-22T01:56:28.180Z,0.00
2023-05-22T01:57:31.534Z,0.00
2023-05-22T01:58:34.847Z,0.00
2023-05-22T01:59:38.236Z,0.00
2023-05-22T02:00:41.721Z,0.00
2023-05-22T02:01:45.091Z,0.00
2023-05-22T02:02:49.584Z,0.00
2023-05-22T02:03:53.423Z,0.00
2023-05-22T02:04:56.452Z,0.00
2023-05-22T02:05:59.593Z,0.00
2023-05-22T02:07:02.871Z,0.00
2023-05-22T02:08:06.322Z,0.00
2023-05-22T02:09:09.594Z,0.00
2023-05-22T02:10:12.888Z,0.43
2023-05-22T02:11:16.238Z,0.00
2023-05-22T02:12:19.495Z,0.33
2023-05-22T02:13:23.059Z,0.43
2023-05-22T02:14:26.342Z,1.43
2023-05-22T02:15:29.700Z,1.29
2023-05-22T02:16:33.138Z,0.43
2023-05-22T02:17:36.659Z,0.00
2023-05-22T02:18:40.029Z,0.00
2023-05-22T02:19:43.319Z,0.00
2023-05-22T02:20:46.582Z,0.00
2023-05-22T02:21:49.732Z,0.00
2023-05-22T02:22:52.978Z,0.00
2023-05-22T02:23:56.062Z,0.00
2023-05-22T02:24:59.225Z,0.00
2023-05-22T02:26:02.385Z,0.00
2023-05-22T02:27:05.486Z,0.00
2023-05-22T02:28:08.544Z,0.00
2023-05-22T02:29:11.727Z,0.00
2023-05-22T02:30:14.823Z,0.00
2023-05-22T02:31:17.935Z,0.00
2023-05-22T02:32:21.147Z,0.00
2023-05-22T02:33:24.216Z,0.00
2023-05-22T02:34:27.338Z,0.00
2023-05-22T02:35:30.511Z,0.00
2023-05-22T02:36:33.713Z,1.00
2023-05-22T02:37:36.877Z,2.33
2023-05-22T02:38:40.058Z,0.67
2023-05-22T02:39:43.138Z,0.00
2023-05-22T02:40:46.223Z,0.00
2023-05-22T02:41:49.299Z,0.00
2023-05-22T02:42:52.580Z,0.00
2023-05-22T02:43:55.976Z,0.00
2023-05-22T02:44:59.358Z,0.00
2023-05-22T02:46:02.791Z,0.00
2023-05-22T02:47:06.133Z,0.00
2023-05-22T02:48:09.565Z,0.00
2023-05-22T02:49:13.017Z,0.00
2023-05-22T02:50:16.718Z,0.00
2023-05-22T02:51:19.948Z,0.00
2023-05-22T02:52:23.231Z,0.00
2023-05-22T02:53:26.505Z,0.00
2023-05-22T02:54:29.726Z,0.00
2023-05-22T02:55:33.217Z,0.00
2023-05-22T02:56:36.601Z,0.00
2023-05-22T02:57:39.805Z,0.00
2023-05-22T02:58:42.967Z,0.43
2023-05-22T02:59:46.145Z,0.00
2023-05-22T03:00:49.330Z,0.00
2023-05-22T03:01:52.588Z,0.00
2023-05-22T03:02:55.732Z,0.00
2023-05-22T03:03:59.033Z,0.00
2023-05-22T03:05:02.153Z,0.00
2023-05-22T03:06:05.268Z,0.00
2023-05-22T03:07:08.443Z,0.00
2023-05-22T03:08:11.414Z,0.00
2023-05-22T03:09:14.585Z,0.00
2023-05-22T03:10:17.777Z,0.00
2023-05-22T03:11:21.055Z,0.00
2023-05-22T03:12:24.330Z,0.00
2023-05-22T03:13:27.484Z,0.00
2023-05-22T03:14:30.689Z,0.00
2023-05-22T03:15:33.897Z,0.00
2023-05-22T03:16:37.099Z,0.00
2023-05-22T03:17:40.270Z,0.00
2023-05-22T03:18:43.667Z,0.00
2023-05-22T03:19:46.717Z,0.00
2023-05-22T03:20:49.871Z,0.00
2023-05-22T03:21:53.078Z,0.00
2023-05-22T03:22:56.161Z,0.00
2023-05-22T03:23:59.532Z,0.00
2023-05-22T03:25:02.923Z,0.00
2023-05-22T03:26:06.315Z,0.00
2023-05-22T03:27:09.541Z,0.00
2023-05-22T03:28:12.478Z,0.00
2023-05-22T03:29:15.685Z,0.00
2023-05-22T03:30:18.733Z,0.00
2023-05-22T03:31:21.888Z,0.00
2023-05-22T03:32:25.241Z,0.00
2023-05-22T03:33:28.498Z,0.00
2023-05-22T03:34:31.661Z,0.00
2023-05-22T03:35:34.849Z,0.00
2023-05-22T03:36:38.051Z,0.00
2023-05-22T03:37:41.392Z,0.00
2023-05-22T03:38:44.507Z,0.00
2023-05-22T03:39:47.677Z,0.00
2023-05-22T03:40:50.798Z,0.00
2023-05-22T03:41:53.868Z,0.00
2023-05-22T03:42:57.032Z,0.00
2023-05-22T03:44:00.111Z,0.00
2023-05-22T03:45:03.202Z,0.00
2023-05-22T03:46:06.366Z,0.00
2023-05-22T03:47:09.534Z,0.00
2023-05-22T03:48:12.619Z,0.00
2023-05-22T03:49:15.907Z,0.00
2023-05-22T03:50:19.096Z,0.00
2023-05-22T03:51:22.163Z,0.00
2023-05-22T03:52:25.382Z,0.00
2023-05-22T03:53:28.499Z,0.00
2023-05-22T03:54:31.605Z,0.00
2023-05-22T03:55:34.654Z,0.00
2023-05-22T03:56:37.864Z,0.00
2023-05-22T03:57:40.747Z,0.00
2023-05-22T03:58:43.832Z,0.00
2023-05-22T03:59:47.230Z,0.00
2023-05-22T04:00:50.491Z,0.00
2023-05-22T04:01:53.789Z,0.00
2023-05-22T04:02:57.118Z,0.00
2023-05-22T04:04:00.636Z,0.00
2023-05-22T04:05:04.049Z,0.00
2023-05-22T04:06:07.689Z,0.00
2023-05-22T04:07:11.131Z,0.00
2023-05-22T04:08:14.515Z,0.00
2023-05-22T04:09:18.201Z,0.00
2023-05-22T04:10:21.714Z,0.00
2023-05-22T04:11:24.989Z,0.00
2023-05-22T04:12:28.359Z,0.00
2023-05-22T04:13:31.636Z,0.00
2023-05-22T04:14:35.240Z,0.00
2023-05-22T04:15:38.561Z,0.00
2023-05-22T04:16:41.882Z,0.00
2023-05-22T04:17:45.326Z,0.00
2023-05-22T04:18:48.549Z,0.00
2023-05-22T04:19:51.936Z,0.00
2023-05-22T04:20:55.357Z,0.00
2023-05-22T04:21:58.731Z,0.00
2023-05-22T04:23:02.127Z,0.00
2023-05-22T04:24:05.607Z,0.00
2023-05-22T04:25:08.899Z,0.00
2023-05-22T04:26:11.984Z,0.00
2023-05-22T04:27:15.268Z,0.00
2023-05-22T04:28:21.305Z,0.00
2023-05-22T04:29:24.708Z,0.00
2023-05-22T04:30:28.254Z,0.00
2023-05-22T04:31:31.748Z,0.00
2023-05-22T04:32:35.213Z,0.00
2023-05-22T04:33:38.450Z,0.00
2023-05-22T04:34:41.748Z,0.00
2023-05-22T04:35:45.127Z,0.00
2023-05-22T04:36:51.479Z,0.00
2023-05-22T04:37:57.636Z,0.00
2023-05-22T04:39:00.818Z,0.00
2023-05-22T04:40:03.994Z,0.00
2023-05-22T04:41:07.282Z,0.00
2023-05-22T04:42:10.351Z,0.00
2023-05-22T04:43:13.561Z,0.00
2023-05-22T04:44:17.031Z,0.00
2023-05-22T04:45:20.289Z,0.00
2023-05-22T04:46:23.806Z,0.00
2023-05-22T04:47:27.084Z,0.00
2023-05-22T04:48:30.327Z,0.00
2023-05-22T04:49:33.662Z,0.00
2023-05-22T04:50:37.247Z,0.00
2023-05-22T04:51:40.841Z,0.00
2023-05-22T04:52:44.013Z,0.00
2023-05-22T04:53:47.200Z,0.00
2023-05-22T04:54:50.683Z,0.00
2023-05-22T04:55:54.074Z,0.00
2023-05-22T04:56:57.558Z,0.00
2023-05-22T04:58:00.943Z,0.00
2023-05-22T04:59:04.353Z,0.00
2023-05-22T05:00:07.723Z,0.00
2023-05-22T05:01:11.040Z,0.00
2023-05-22T05:02:14.818Z,0.00
2023-05-22T05:03:18.235Z,0.00
2023-05-22T05:04:21.558Z,0.00
2023-05-22T05:05:24.966Z,0.00
2023-05-22T05:06:28.214Z,0.00
2023-05-22T05:07:31.819Z,0.00
2023-05-22T05:08:35.167Z,0.00
2023-05-22T05:09:38.510Z,0.00
2023-05-22T05:10:41.936Z,0.00
2023-05-22T05:11:45.248Z,0.00
2023-05-22T05:12:48.733Z,0.00
2023-05-22T05:13:52.083Z,0.00
2023-05-22T05:14:55.243Z,0.00
2023-05-22T05:15:58.520Z,0.00
2023-05-22T05:17:01.860Z,0.00
2023-05-22T05:18:05.652Z,0.00
2023-05-22T05:19:09.010Z,0.00
2023-05-22T05:20:12.883Z,0.00
2023-05-22T05:21:16.277Z,0.00
2023-05-22T05:22:19.718Z,0.00
2023-05-22T05:23:23.272Z,0.00
2023-05-22T05:24:26.635Z,0.00
2023-05-22T05:25:30.120Z,0.00
2023-05-22T05:26:33.309Z,0.00
2023-05-22T05:27:36.688Z,0.00
2023-05-22T05:28:40.290Z,0.00
2023-05-22T05:29:43.769Z,0.00
2023-05-22T05:30:47.119Z,0.00
2023-05-22T05:31:50.492Z,0.00
2023-05-22T05:32:53.754Z,0.00
2023-05-22T05:33:57.418Z,0.00
2023-05-22T05:35:01.524Z,0.00
2023-05-22T05:36:04.709Z,0.00
2023-05-22T05:37:07.873Z,0.00
2023-05-22T05:38:11.181Z,0.00
2023-05-22T05:39:14.326Z,0.00
2023-05-22T05:40:17.432Z,0.00
2023-05-22T05:41:20.824Z,0.00
2023-05-22T05:42:24.009Z,0.00
2023-05-22T05:43:27.287Z,0.00
2023-05-22T05:44:30.574Z,0.00
2023-05-22T05:45:33.792Z,0.00
2023-05-22T05:46:36.877Z,0.00
2023-05-22T05:47:40.151Z,0.00
2023-05-22T05:48:43.407Z,0.00
2023-05-22T05:49:46.497Z,0.00
2023-05-22T05:50:49.571Z,0.00
2023-05-22T05:51:52.720Z,0.00
2023-05-22T05:52:55.834Z,0.00
2023-05-22T05:53:58.801Z,0.00
2023-05-22T05:55:01.800Z,0.00
2023-05-22T05:56:04.869Z,0.00
2023-05-22T05:57:08.004Z,0.00
2023-05-22T05:58:11.127Z,0.00
2023-05-22T05:59:14.288Z,0.00
2023-05-22T06:00:17.379Z,0.00
2023-05-22T06:01:20.471Z,0.00
2023-05-22T06:02:23.850Z,0.00
2023-05-22T06:03:27.135Z,0.00
2023-05-22T06:04:30.273Z,0.00
2023-05-22T06:05:33.217Z,0.00
2023-05-22T06:06:36.620Z,0.00
2023-05-22T06:07:39.947Z,0.00
2023-05-22T06:08:43.144Z,0.00
2023-05-22T06:09:46.237Z,0.00
2023-05-22T06:10:49.413Z,0.00
2023-05-22T06:11:52.689Z,0.00
2023-05-22T06:12:55.768Z,0.00
2023-05-22T06:13:58.949Z,0.00
2023-05-22T06:15:02.016Z,0.00
2023-05-22T06:16:06.531Z,0.00
2023-05-22T06:17:10.845Z,0.00
2023-05-22T06:18:13.804Z,0.00
2023-05-22T06:19:17.034Z,0.00
2023-05-22T06:20:20.357Z,0.00
2023-05-22T06:21:23.601Z,0.00
2023-05-22T06:22:26.926Z,0.00
2023-05-22T06:23:30.048Z,0.00
2023-05-22T06:24:33.236Z,0.00
2023-05-22T06:25:36.803Z,0.00
2023-05-22T06:26:39.957Z,0.00
2023-05-22T06:27:45.002Z,0.00
2023-05-22T06:28:48.104Z,0.00
2023-05-22T06:29:53.379Z,0.00
2023-05-22T06:30:56.742Z,0.00
2023-05-22T06:32:00.055Z,0.00
2023-05-22T06:33:03.685Z,0.00
2023-05-22T06:34:07.343Z,0.00
2023-05-22T06:35:10.638Z,0.00
2023-05-22T06:36:13.927Z,0.00
2023-05-22T06:37:17.589Z,0.00
2023-05-22T06:38:20.845Z,0.00
2023-05-22T06:39:24.326Z,0.00
2023-05-22T06:40:27.724Z,0.00
2023-05-22T06:41:31.097Z,0.00
2023-05-22T06:42:34.406Z,0.00
2023-05-22T06:43:37.669Z,0.00
2023-05-22T06:44:41.075Z,0.00
2023-05-22T06:45:44.305Z,0.00
2023-05-22T06:46:47.694Z,0.00
2023-05-22T06:47:51.227Z,0.00
2023-05-22T06:48:54.726Z,0.00
2023-05-22T06:49:57.816Z,0.00
2023-05-22T06:51:04.045Z,0.00
2023-05-22T06:52:08.263Z,0.00
2023-05-22T06:53:11.765Z,0.00
2023-05-22T06:54:14.799Z,0.00
2023-05-22T06:55:17.942Z,0.00
2023-05-22T06:56:21.180Z,0.00
2023-05-22T06:57:24.084Z,0.14
2023-05-22T06:58:27.358Z,0.50
2023-05-22T06:59:30.740Z,0.00
2023-05-22T07:00:33.811Z,0.00
2023-05-22T07:01:37.029Z,0.00
2023-05-22T07:02:40.388Z,0.00
2023-05-22T07:03:43.672Z,0.00
2023-05-22T07:04:46.946Z,0.00
2023-05-22T07:05:50.161Z,0.00
2023-05-22T07:06:53.540Z,0.00
2023-05-22T07:07:56.922Z,0.00
2023-05-22T07:09:00.199Z,0.00
2023-05-22T07:10:03.282Z,0.00
2023-05-22T07:11:06.341Z,0.00
2023-05-22T07:12:09.419Z,0.00
2023-05-22T07:13:12.812Z,0.00
2023-05-22T07:14:16.093Z,0.00
2023-05-22T07:15:19.580Z,0.00
2023-05-22T07:16:23.924Z,0.00
2023-05-22T07:17:27.595Z,0.00
2023-05-22T07:18:30.873Z,0.00
2023-05-22T07:19:34.340Z,0.00
2023-05-22T07:20:38.442Z,0.00
2023-05-22T07:21:43.045Z,0.00
2023-05-22T07:22:49.119Z,0.00
2023-05-22T07:23:52.609Z,0.00
2023-05-22T07:24:55.830Z,0.00
2023-05-22T07:26:00.350Z,0.00
2023-05-22T07:27:04.067Z,0.00
2023-05-22T07:28:07.389Z,0.00
2023-05-22T07:29:11.086Z,0.00
2023-05-22T07:30:14.387Z,0.00
2023-05-22T07:31:17.928Z,0.00
2023-05-22T07:32:21.473Z,0.00
2023-05-22T07:33:25.045Z,0.00
2023-05-22T07:34:29.658Z,0.00
2023-05-22T07:35:33.052Z,0.00
2023-05-22T07:36:36.536Z,0.33
2023-05-22T07:37:40.089Z,0.00
2023-05-22T07:38:44.695Z,0.00
2023-05-22T07:39:48.013Z,0.00
2023-05-22T07:40:51.409Z,0.00
2023-05-22T07:41:56.965Z,0.00
2023-05-22T07:42:59.207Z,0.00
2023-05-22T07:44:02.561Z,0.00
2023-05-22T07:45:05.885Z,0.00
2023-05-22T07:46:13.887Z,0.00
2023-05-22T07:47:17.150Z,0.00
2023-05-22T07:48:20.452Z,0.00
2023-05-22T07:49:23.662Z,0.00
2023-05-22T07:50:27.080Z,0.00
2023-05-22T07:51:30.355Z,0.00
2023-05-22T07:52:33.455Z,0.00
2023-05-22T07:53:36.765Z,0.00
2023-05-22T07:54:41.529Z,0.00
2023-05-22T07:55:44.752Z,0.00
2023-05-22T07:56:48.251Z,0.43
2023-05-22T07:57:51.591Z,0.43
2023-05-22T07:58:54.916Z,0.00
2023-05-22T07:59:58.254Z,0.00
2023-05-22T08:01:01.552Z,0.00
2023-05-22T08:02:04.925Z,0.43
2023-05-22T08:03:08.787Z,0.25
2023-05-22T08:04:12.389Z,0.57
2023-05-22T08:05:16.038Z,0.43
2023-05-22T08:06:19.447Z,0.57
2023-05-22T08:07:22.728Z,0.00
2023-05-22T08:08:26.002Z,0.00
2023-05-22T08:09:29.289Z,0.00
2023-05-22T08:10:46.496Z,0.00
2023-05-22T08:11:37.951Z,0.00
2023-05-22T08:12:41.417Z,1.00
2023-05-22T08:13:44.705Z,0.86
2023-05-22T08:14:48.064Z,1.43
2023-05-22T08:15:51.858Z,1.00
2023-05-22T08:16:56.250Z,1.00
2023-05-22T08:17:59.771Z,1.00
2023-05-22T08:19:03.580Z,1.00
2023-05-22T08:20:07.360Z,1.00
2023-05-22T08:21:10.853Z,1.00
2023-05-22T08:22:14.346Z,1.00
2023-05-22T08:23:17.727Z,1.00
2023-05-22T08:24:22.249Z,1.00
2023-05-22T08:25:25.211Z,1.00
2023-05-22T08:26:29.450Z,1.00
2023-05-22T08:27:32.504Z,1.00
2023-05-22T08:28:35.605Z,1.00
2023-05-22T08:29:38.784Z,1.00
2023-05-22T08:30:42.051Z,1.00
2023-05-22T08:31:45.061Z,1.00
2023-05-22T08:32:48.350Z,1.33
2023-05-22T08:33:51.481Z,2.00
2023-05-22T08:34:54.767Z,1.57
2023-05-22T08:35:57.867Z,2.00
2023-05-22T08:37:01.045Z,2.00
2023-05-22T08:38:04.217Z,1.50
2023-05-22T08:39:07.393Z,2.43
2023-05-22T08:40:11.072Z,2.57
2023-05-22T08:41:14.347Z,1.57
2023-05-22T08:42:17.518Z,1.00
2023-05-22T08:43:20.693Z,1.00
2023-05-22T08:44:24.261Z,1.00
2023-05-22T08:45:27.510Z,1.00
2023-05-22T08:46:30.942Z,1.00
2023-05-22T08:47:34.087Z,1.00
2023-05-22T08:48:37.774Z,1.00
2023-05-22T08:49:41.050Z,1.00
2023-05-22T08:50:44.328Z,1.43
2023-05-22T08:51:47.438Z,2.00
2023-05-22T08:52:50.711Z,1.57
2023-05-22T08:53:53.906Z,1.00
2023-05-22T08:54:57.214Z,1.33
2023-05-22T08:56:00.448Z,1.67
2023-05-22T08:57:15.769Z,1.00
2023-05-22T08:58:19.057Z,1.00
2023-05-22T08:59:22.173Z,1.00
2023-05-22T09:00:25.334Z,1.00
2023-05-22T09:01:28.928Z,1.00
2023-05-22T09:02:32.115Z,1.00
2023-05-22T09:03:35.253Z,0.86
2023-05-22T09:04:38.316Z,1.00
2023-05-22T09:05:41.403Z,1.00
2023-05-22T09:06:44.589Z,0.57
2023-05-22T09:07:47.752Z,1.00
2023-05-22T09:08:51.660Z,1.00
2023-05-22T09:09:54.669Z,0.75
2023-05-22T09:10:57.753Z,1.00
2023-05-22T09:12:00.759Z,1.00
2023-05-22T09:13:03.853Z,1.00
2023-05-22T09:14:07.003Z,1.00
2023-05-22T09:15:10.054Z,1.00
2023-05-22T09:16:13.114Z,0.67
2023-05-22T09:17:16.721Z,0.00
2023-05-22T09:18:19.846Z,0.43
2023-05-22T09:19:22.968Z,1.00
2023-05-22T09:20:26.153Z,1.00
2023-05-22T09:21:30.533Z,1.00
2023-05-22T09:22:33.517Z,1.00
2023-05-22T09:23:36.592Z,1.00
2023-05-22T09:24:39.706Z,0.67
2023-05-22T09:25:42.660Z,0.43
2023-05-22T09:26:45.636Z,1.00
2023-05-22T09:27:48.734Z,0.67
2023-05-22T09:28:51.898Z,0.43
2023-05-22T09:29:55.088Z,0.57
2023-05-22T09:30:58.452Z,0.67
2023-05-22T09:32:01.583Z,0.86
2023-05-22T09:33:04.710Z,1.00
2023-05-22T09:34:07.842Z,1.00
2023-05-22T09:35:10.863Z,1.00
2023-05-22T09:36:14.109Z,1.00
2023-05-22T09:37:17.264Z,1.00
2023-05-22T09:38:20.445Z,1.43
2023-05-22T09:39:23.640Z,1.57
2023-05-22T09:40:26.831Z,1.33
2023-05-22T09:41:30.074Z,2.00
2023-05-22T09:42:33.370Z,2.00
2023-05-22T09:43:36.503Z,1.57
2023-05-22T09:44:39.641Z,1.43
2023-05-22T09:45:42.920Z,1.57
2023-05-22T09:46:46.199Z,1.00
2023-05-22T09:47:49.368Z,1.43
2023-05-22T09:48:52.348Z,2.00
2023-05-22T09:49:55.436Z,2.43
2023-05-22T09:50:58.405Z,2.50
2023-05-22T09:52:01.739Z,2.00
2023-05-22T09:53:04.808Z,2.43
2023-05-22T09:54:07.969Z,2.43
2023-05-22T09:55:11.009Z,2.00
2023-05-22T09:56:14.821Z,2.00
2023-05-22T09:57:18.327Z,2.00
2023-05-22T09:58:21.504Z,2.43
2023-05-22T09:59:24.598Z,3.00
2023-05-22T10:00:27.557Z,3.00
2023-05-22T10:01:30.857Z,2.86
2023-05-22T10:02:34.162Z,3.00
2023-05-22T10:03:37.216Z,3.00
2023-05-22T10:04:40.364Z,3.00
2023-05-22T10:05:43.429Z,3.43
2023-05-22T10:06:46.455Z,3.57
2023-05-22T10:07:49.491Z,2.67
2023-05-22T10:08:52.477Z,2.43
2023-05-22T10:09:55.564Z,2.67
2023-05-22T10:10:58.723Z,2.43
2023-05-22T10:12:02.971Z,2.57
2023-05-22T10:13:06.385Z,2.50
2023-05-22T10:14:09.753Z,2.57
2023-05-22T10:15:18.256Z,2.00
2023-05-22T10:16:21.589Z,2.50
2023-05-22T10:17:24.977Z,2.71
2023-05-22T10:18:29.244Z,2.57
2023-05-22T10:19:32.549Z,2.50
2023-05-22T10:20:36.027Z,2.14
2023-05-22T10:21:39.536Z,2.29
2023-05-22T10:22:42.982Z,2.57
2023-05-22T10:23:46.278Z,3.00
2023-05-22T10:24:49.666Z,3.00
2023-05-22T10:25:53.140Z,3.00
2023-05-22T10:26:56.235Z,3.00
2023-05-22T10:27:59.609Z,3.00
2023-05-22T10:29:02.933Z,3.17
2023-05-22T10:30:05.850Z,3.33
2023-05-22T10:31:09.161Z,4.00
2023-05-22T10:32:12.551Z,3.57
2023-05-22T10:33:16.151Z,3.43
2023-05-22T10:35:40.327Z,3.50
2023-05-22T10:36:43.710Z,3.29
2023-05-22T10:37:46.694Z,3.43
2023-05-22T10:38:50.080Z,3.67
2023-05-22T10:39:53.659Z,3.00
2023-05-22T10:40:56.996Z,3.00
2023-05-22T10:42:00.518Z,3.00
2023-05-22T10:43:03.909Z,3.00
2023-05-22T10:44:07.158Z,2.86
2023-05-22T10:45:10.402Z,3.33
2023-05-22T10:46:13.896Z,3.57
2023-05-22T10:47:17.298Z,3.00
2023-05-22T10:48:20.661Z,3.00
2023-05-22T10:49:23.949Z,3.33
2023-05-22T10:50:27.553Z,4.33
2023-05-22T10:51:30.915Z,4.50
2023-05-22T10:52:34.312Z,4.00
2023-05-22T10:53:37.684Z,4.00
2023-05-22T10:54:41.075Z,3.14
2023-05-22T10:55:44.458Z,2.57
2023-05-22T10:56:47.640Z,3.57
2023-05-22T10:57:50.631Z,2.83
2023-05-22T10:58:54.005Z,3.00
2023-05-22T10:59:57.047Z,3.00
2023-05-22T11:01:00.366Z,3.00
2023-05-22T11:02:03.795Z,3.00
2023-05-22T11:03:17.918Z,3.00
2023-05-22T11:04:11.697Z,3.00
2023-05-22T11:05:14.840Z,3.00
2023-05-22T11:06:18.247Z,3.00
2023-05-22T11:07:21.469Z,3.00
2023-05-22T11:08:24.816Z,3.00
2023-05-22T11:09:28.184Z,3.43
2023-05-22T11:10:31.358Z,4.00
2023-05-22T11:11:34.750Z,4.00
2023-05-22T11:12:37.829Z,3.67
2023-05-22T11:13:41.326Z,3.00
2023-05-22T11:14:44.289Z,2.57
2023-05-22T11:15:47.731Z,3.00
2023-05-22T11:16:50.761Z,3.00
2023-05-22T11:17:53.762Z,3.00
2023-05-22T11:18:58.866Z,3.00
2023-05-22T11:20:01.923Z,3.00
2023-05-22T11:21:05.243Z,3.43
2023-05-22T11:22:08.219Z,3.14
2023-05-22T11:23:11.308Z,3.43
2023-05-22T11:24:14.602Z,3.67
2023-05-22T11:25:17.762Z,3.29
2023-05-22T11:26:20.954Z,3.43
2023-05-22T11:27:24.005Z,3.57
2023-05-22T11:28:27.108Z,3.33
2023-05-22T11:29:30.170Z,3.57
2023-05-22T11:30:33.169Z,3.00
2023-05-22T11:31:36.408Z,3.00
2023-05-22T11:32:39.671Z,3.43
2023-05-22T11:33:42.668Z,3.57
2023-05-22T11:34:47.716Z,3.33
2023-05-22T11:35:50.612Z,3.50
2023-05-22T11:36:53.570Z,3.00
2023-05-22T11:37:57.048Z,3.00
2023-05-22T11:39:00.197Z,3.25
2023-05-22T11:40:03.136Z,3.67
2023-05-22T11:41:06.227Z,4.00
2023-05-22T11:42:09.482Z,4.00
2023-05-22T11:43:12.679Z,3.57
2023-05-22T11:44:15.758Z,3.00
2023-05-22T11:45:18.931Z,3.00
2023-05-22T11:46:22.106Z,3.00
2023-05-22T11:47:25.256Z,3.14
2023-05-22T11:48:28.592Z,3.00
2023-05-22T11:49:31.556Z,3.00
2023-05-22T11:50:42.305Z,3.00
2023-05-22T11:51:38.926Z,2.57
2023-05-22T11:52:41.931Z,2.33
2023-05-22T11:53:45.002Z,2.57
2023-05-22T11:54:48.144Z,2.50
2023-05-22T11:55:51.149Z,3.00
2023-05-22T11:56:54.200Z,2.57
2023-05-22T11:57:57.296Z,3.00
2023-05-22T11:59:00.380Z,3.57
2023-05-22T12:00:03.430Z,3.00
2023-05-22T12:01:06.465Z,3.00
2023-05-22T12:02:09.417Z,3.14
2023-05-22T12:03:12.694Z,3.67
2023-05-22T12:04:15.822Z,3.00
2023-05-22T12:05:19.072Z,3.00
2023-05-22T12:06:22.091Z,3.00
2023-05-22T12:07:25.431Z,3.00
2023-05-22T12:08:32.066Z,3.00
2023-05-22T12:09:35.080Z,3.50
2023-05-22T12:10:38.474Z,4.00
2023-05-22T12:11:41.694Z,3.43
2023-05-22T12:12:45.026Z,3.57
2023-05-22T12:13:48.077Z,3.86
2023-05-22T12:14:51.053Z,5.00
2023-05-22T12:15:54.015Z,4.57
2023-05-22T12:16:57.128Z,4.00
2023-05-22T12:18:00.329Z,4.00
2023-05-22T12:19:03.480Z,4.43
2023-05-22T12:20:06.718Z,4.14
2023-05-22T12:21:09.772Z,3.43
2023-05-22T12:22:12.961Z,3.17
2023-05-22T12:23:16.135Z,3.00
2023-05-22T12:24:19.411Z,3.00
2023-05-22T12:25:22.486Z,3.00
2023-05-22T12:26:25.597Z,3.00
2023-05-22T12:27:30.076Z,2.57
2023-05-22T12:28:33.177Z,2.00
2023-05-22T12:29:36.452Z,2.43
2023-05-22T12:30:39.959Z,2.29
2023-05-22T12:31:43.351Z,2.43
2023-05-22T12:32:46.630Z,3.00
2023-05-22T12:33:49.883Z,2.86
2023-05-22T12:34:53.197Z,2.00
2023-05-22T12:35:56.370Z,2.43
2023-05-22T12:36:59.441Z,2.86
2023-05-22T12:38:02.925Z,2.67
2023-05-22T12:39:06.222Z,3.00
2023-05-22T12:40:09.582Z,3.67
2023-05-22T12:41:12.903Z,4.57
2023-05-22T12:42:15.839Z,4.00
2023-05-22T12:43:19.177Z,4.00
2023-05-22T12:44:22.191Z,3.57
2023-05-22T12:45:25.628Z,3.00
2023-05-22T12:46:29.063Z,3.12
2023-05-22T12:47:32.433Z,4.00
2023-05-22T12:48:35.638Z,4.00
2023-05-22T12:49:39.056Z,3.67
2023-05-22T12:50:42.422Z,3.43
2023-05-22T12:51:45.934Z,3.50
2023-05-22T12:52:49.323Z,4.00
2023-05-22T12:53:52.706Z,4.00
2023-05-22T12:54:55.705Z,4.00
2023-05-22T12:55:58.880Z,3.00
2023-05-22T12:57:02.250Z,3.43
2023-05-22T12:58:05.557Z,4.00
2023-05-22T12:59:08.835Z,4.43
2023-05-22T13:00:12.189Z,4.43
2023-05-22T13:01:15.827Z,4.00
2023-05-22T13:02:19.188Z,4.00
2023-05-22T13:03:22.375Z,4.00
2023-05-22T13:04:25.744Z,4.00
2023-05-22T13:05:29.238Z,4.00
2023-05-22T13:06:32.559Z,3.57
2023-05-22T13:07:35.814Z,3.00
2023-05-22T13:08:39.209Z,3.29
2023-05-22T13:09:42.600Z,4.00
2023-05-22T13:10:45.965Z,4.00
2023-05-22T13:11:49.323Z,4.00
2023-05-22T13:12:52.649Z,4.00
2023-05-22T13:13:56.124Z,4.00
2023-05-22T13:14:59.547Z,4.71
2023-05-22T13:16:02.935Z,5.00
2023-05-22T13:17:06.295Z,5.00
2023-05-22T13:18:09.634Z,5.00
2023-05-22T13:19:13.019Z,5.00
2023-05-22T13:20:16.158Z,5.29
2023-05-22T13:21:19.246Z,5.57
2023-05-22T13:22:22.410Z,5.33
2023-05-22T13:23:25.494Z,6.00
2023-05-22T13:24:28.679Z,6.29
2023-05-22T13:25:31.949Z,6.00
2023-05-22T13:26:35.233Z,6.71
2023-05-22T13:27:38.428Z,6.00
2023-05-22T13:28:41.692Z,6.00
2023-05-22T13:29:44.783Z,6.43
2023-05-22T13:30:47.971Z,6.33
2023-05-22T13:31:51.152Z,6.57
2023-05-22T13:32:54.397Z,7.00
2023-05-22T13:33:57.630Z,6.57
2023-05-22T13:35:00.880Z,6.17
2023-05-22T13:36:04.029Z,6.17
2023-05-22T13:37:07.272Z,6.00
2023-05-22T13:38:10.684Z,6.00
2023-05-22T13:39:14.698Z,6.29
2023-05-22T13:40:18.044Z,6.37
2023-05-22T13:41:21.431Z,6.00
2023-05-22T13:42:24.994Z,5.00
2023-05-22T13:43:28.387Z,5.43
2023-05-22T13:44:31.972Z,6.00
2023-05-22T13:45:35.563Z,5.86
2023-05-22T13:46:40.723Z,5.57
2023-05-22T13:47:43.988Z,5.00
2023-05-22T13:48:47.224Z,4.71
2023-05-22T13:49:50.952Z,6.00
2023-05-22T13:50:54.869Z,5.00
2023-05-22T13:51:58.215Z,4.00
2023-05-22T13:53:01.759Z,4.00
2023-05-22T13:54:05.521Z,4.50
2023-05-22T13:55:08.774Z,4.57
2023-05-22T13:56:12.402Z,4.00
2023-05-22T13:57:16.096Z,4.00
2023-05-22T13:58:19.575Z,4.37
2023-05-22T13:59:23.300Z,5.00
2023-05-22T14:00:26.866Z,5.57
2023-05-22T14:01:30.271Z,4.57
2023-05-22T14:02:34.054Z,4.43
2023-05-22T14:03:37.851Z,5.00
2023-05-22T14:04:41.544Z,4.57